Time;durP1;ratioP1;P1;durP2;ratioP2;P2;SDS_P1;SDS_P2;PMS_P1;PMS_P2;Temp;Humidity;BMP_temperature;BMP_pressure;BME280_temperature;BME280_humidity;BME280_pressure;Samples;Min_cycle;Max_cycle;Signal;HPM_P1;HPM_P2
2021/05/25 00:02:08;;;;;;;2.55;1.90;;;;;;;26.23;42.39;95401.41;4925920;29;20035;-69
2021/05/25 00:04:33;;;;;;;3.10;1.85;;;;;;;26.23;42.67;95401.41;4934036;29;20051;-69
2021/05/25 00:06:59;;;;;;;2.42;1.80;;;;;;;26.21;42.71;95382.03;4934276;29;20046;-68
2021/05/25 00:09:24;;;;;;;2.60;1.90;;;;;;;26.23;43.14;95384.97;4934136;29;20504;-69
2021/05/25 00:11:50;;;;;;;2.63;1.90;;;;;;;26.22;43.17;95383.53;4916817;29;20073;-69
2021/05/25 00:14:19;;;;;;;3.08;1.75;;;;;;;26.21;42.91;95386.78;4934377;29;20082;-70
2021/05/25 00:16:45;;;;;;;3.60;2.30;;;;;;;26.19;42.64;95384.56;4934173;29;20047;-69
2021/05/25 00:19:11;;;;;;;2.70;1.70;;;;;;;26.19;43.19;95373.59;4933633;29;20034;-69
2021/05/25 00:21:36;;;;;;;2.45;2.00;;;;;;;26.18;42.58;95377.59;4919967;29;20122;-70
2021/05/25 00:24:02;;;;;;;2.65;1.90;;;;;;;26.18;42.77;95382.34;4913483;29;20095;-68
2021/05/25 00:26:28;;;;;;;3.65;1.98;;;;;;;26.18;42.86;95387.81;4914724;29;20559;-68
2021/05/25 00:28:53;;;;;;;4.00;1.80;;;;;;;26.16;43.13;95391.06;4949508;29;20034;-69
2021/05/25 00:31:18;;;;;;;2.88;1.98;;;;;;;26.15;42.55;95384.09;4951797;29;20031;-69
2021/05/25 00:33:44;;;;;;;3.22;1.98;;;;;;;26.13;43.48;95386.63;4952676;29;20086;-69
2021/05/25 00:36:11;;;;;;;2.90;1.80;;;;;;;26.15;43.05;95378.63;4952813;29;20049;-68
2021/05/25 00:38:37;;;;;;;2.70;2.15;;;;;;;26.15;42.89;95377.91;4952494;29;20031;-69
2021/05/25 00:41:02;;;;;;;2.63;2.03;;;;;;;26.15;43.12;95367.69;4929680;29;20046;-69
2021/05/25 00:43:28;;;;;;;2.78;1.90;;;;;;;26.13;42.61;95362.00;4933411;29;20027;-70
2021/05/25 00:45:54;;;;;;;2.70;1.90;;;;;;;26.14;43.15;95349.03;4933518;29;20036;-69
2021/05/25 00:48:20;;;;;;;3.13;2.00;;;;;;;26.09;43.17;95353.34;4933622;29;20484;-69
2021/05/25 00:50:45;;;;;;;2.15;1.77;;;;;;;26.01;43.23;95330.56;4916469;29;20043;-69
2021/05/25 00:53:10;;;;;;;3.35;1.90;;;;;;;26.08;42.90;95327.22;4916241;29;20471;-69
2021/05/25 00:55:37;;;;;;;3.20;2.00;;;;;;;26.09;42.96;95336.91;4916131;29;20476;-69
2021/05/25 00:58:04;;;;;;;2.72;1.90;;;;;;;26.09;43.06;95347.84;4938184;29;20046;-68
2021/05/25 01:00:34;;;;;;;3.38;1.88;;;;;;;26.08;43.11;95340.91;4932821;29;20028;-69
2021/05/25 01:03:00;;;;;;;3.38;2.30;;;;;;;26.07;43.31;95339.44;4932869;29;20047;-70
2021/05/25 01:05:25;;;;;;;3.03;2.00;;;;;;;26.08;43.28;95346.38;4931629;29;20416;-70
2021/05/25 01:07:51;;;;;;;2.70;2.03;;;;;;;25.99;43.01;95349.50;4933234;29;20488;-68
2021/05/25 01:10:22;;;;;;;3.08;1.90;;;;;;;26.06;42.88;95381.75;4933138;29;20119;-69
2021/05/25 01:12:59;;;;;;;3.58;2.42;;;;;;;26.06;43.45;95381.75;4902493;29;20082;-69
2021/05/25 01:15:25;;;;;;;2.75;2.05;;;;;;;26.05;43.11;95369.34;4914114;29;20130;-69
2021/05/25 01:17:55;;;;;;;2.38;1.80;;;;;;;26.01;42.94;95363.41;4913976;29;20500;-69
2021/05/25 01:20:21;;;;;;;3.22;1.90;;;;;;;26.03;43.60;95371.81;4914069;29;20036;-69
2021/05/25 01:22:47;;;;;;;4.00;2.28;;;;;;;26.04;43.15;95376.06;4912737;29;20028;-69
2021/05/25 01:25:13;;;;;;;3.03;2.20;;;;;;;26.03;43.23;95371.81;4902581;29;20019;-70
2021/05/25 01:27:39;;;;;;;3.10;2.03;;;;;;;26.03;43.74;95376.56;4952058;29;20035;-69
2021/05/25 01:30:06;;;;;;;3.13;2.00;;;;;;;26.00;43.53;95367.38;4951649;29;20488;-69
2021/05/25 01:32:31;;;;;;;3.28;2.25;;;;;;;25.99;43.44;95360.47;4951818;29;20083;-69
2021/05/25 01:34:57;;;;;;;3.28;2.03;;;;;;;26.02;42.83;95362.16;4951814;29;20060;-69
2021/05/25 01:37:22;;;;;;;3.13;2.28;;;;;;;25.93;43.64;95346.09;4951162;29;20066;-70
2021/05/25 01:39:52;;;;;;;3.75;2.28;;;;;;;25.98;43.82;95350.03;4935588;29;20035;-69
2021/05/25 01:42:18;;;;;;;3.55;2.30;;;;;;;25.97;43.59;95346.53;4932865;29;20404;-69
2021/05/25 01:44:44;;;;;;;2.92;2.20;;;;;;;25.95;43.26;95340.84;4915476;29;20103;-68
2021/05/25 01:47:09;;;;;;;2.83;2.30;;;;;;;25.87;43.00;95331.75;4915195;29;20027;-69
2021/05/25 01:49:34;;;;;;;3.45;2.42;;;;;;;25.96;43.51;95339.59;4915394;29;20038;-68
2021/05/25 01:52:00;;;;;;;2.80;2.15;;;;;;;25.95;43.57;95351.78;4932303;29;20051;-69
2021/05/25 01:54:25;;;;;;;3.30;2.50;;;;;;;25.93;43.37;95362.53;4932338;29;20039;-69
2021/05/25 01:56:51;;;;;;;3.75;2.38;;;;;;;25.94;42.98;95353.03;4924577;29;20033;-69
2021/05/25 01:59:16;;;;;;;3.13;2.55;;;;;;;25.92;43.39;95350.09;4913605;29;20024;-69
2021/05/25 02:01:42;;;;;;;2.88;2.00;;;;;;;25.92;43.53;95350.09;4913492;29;20032;-68
2021/05/25 02:04:07;;;;;;;2.70;2.20;;;;;;;25.92;43.49;95339.16;4908476;29;20124;-70
2021/05/25 02:06:33;;;;;;;3.15;2.20;;;;;;;25.92;43.60;95339.16;4894290;29;20155;-70
2021/05/25 02:08:58;;;;;;;2.72;2.42;;;;;;;25.90;43.75;95346.38;4894569;29;20032;-68
2021/05/25 02:11:24;;;;;;;4.00;2.50;;;;;;;25.90;43.63;95336.19;4892817;29;20515;-68
2021/05/25 02:13:49;;;;;;;2.75;2.20;;;;;;;25.87;43.14;95326.28;4894307;29;20080;-68
2021/05/25 02:16:16;;;;;;;3.75;2.50;;;;;;;25.79;43.41;95312.97;4912071;29;20026;-69
2021/05/25 02:18:44;;;;;;;3.63;2.38;;;;;;;25.79;43.40;95329.38;4931641;29;20027;-71
2021/05/25 02:21:10;;;;;;;2.95;2.50;;;;;;;25.88;43.28;95333.22;4930603;29;20028;-70
2021/05/25 02:23:35;;;;;;;3.45;2.30;;;;;;;25.87;43.56;95331.75;4931800;29;20110;-68
2021/05/25 02:26:01;;;;;;;4.05;2.63;;;;;;;25.86;43.85;95324.78;4931241;29;20143;-70
2021/05/25 02:28:26;;;;;;;3.53;2.45;;;;;;;25.86;43.51;95330.25;4912486;29;20427;-70
2021/05/25 02:30:52;;;;;;;2.83;2.33;;;;;;;25.85;43.11;95323.31;4927166;29;20096;-70
2021/05/25 02:33:20;;;;;;;3.25;2.20;;;;;;;25.85;43.10;95333.53;4912900;29;20040;-70
2021/05/25 02:35:45;;;;;;;3.67;2.72;;;;;;;25.84;43.76;95321.84;4912919;29;20733;-69
2021/05/25 02:38:13;;;;;;;3.88;2.40;;;;;;;25.84;43.08;95316.38;4902597;29;20073;-69
2021/05/25 02:40:39;;;;;;;3.58;2.42;;;;;;;25.85;43.63;95317.84;4893786;29;20032;-69
2021/05/25 02:43:04;;;;;;;3.10;2.65;;;;;;;25.85;43.77;95322.56;4893557;29;20036;-69
2021/05/25 02:45:30;;;;;;;3.15;2.35;;;;;;;25.86;43.14;95318.59;4918468;29;20046;-69
2021/05/25 02:47:56;;;;;;;3.38;2.58;;;;;;;25.82;42.92;95324.34;4931309;29;20483;-69
2021/05/25 02:50:21;;;;;;;2.60;2.40;;;;;;;25.83;43.61;95331.31;4931222;29;20493;-69
2021/05/25 02:52:48;;;;;;;3.13;2.50;;;;;;;25.82;43.29;95335.28;4931319;29;20028;-69
2021/05/25 02:55:15;;;;;;;3.88;2.70;;;;;;;25.84;43.62;95337.50;4945443;29;20031;-69
2021/05/25 02:57:40;;;;;;;3.83;2.80;;;;;;;25.82;43.13;95329.09;4930770;29;20059;-69
2021/05/25 03:00:07;;;;;;;4.38;2.67;;;;;;;25.83;43.21;95336.03;4928774;29;20127;-69
2021/05/25 03:02:33;;;;;;;3.58;2.70;;;;;;;25.82;43.98;95346.22;4932150;29;20051;-69
2021/05/25 03:04:58;;;;;;;3.72;2.53;;;;;;;25.81;43.23;95333.81;4929432;29;20032;-68
2021/05/25 03:07:24;;;;;;;3.20;2.50;;;;;;;25.81;43.17;95331.09;4914661;29;20019;-68
2021/05/25 03:09:49;;;;;;;3.08;2.40;;;;;;;25.82;43.71;95329.81;4935292;29;20095;-69
2021/05/25 03:12:15;;;;;;;3.78;2.63;;;;;;;25.79;43.97;95325.38;4942798;29;20039;-69
2021/05/25 03:14:40;;;;;;;3.70;2.85;;;;;;;25.79;43.54;95325.38;4949783;29;20093;-69
2021/05/25 03:17:05;;;;;;;4.63;3.30;;;;;;;25.79;43.24;95330.84;4932535;29;20038;-69
2021/05/25 03:19:31;;;;;;;3.85;3.05;;;;;;;25.79;43.96;95330.84;4947011;29;20026;-69
2021/05/25 03:21:56;;;;;;;3.17;2.60;;;;;;;25.80;43.90;95337.81;4914280;29;20560;-69
2021/05/25 03:24:22;;;;;;;3.80;2.92;;;;;;;25.82;43.22;95335.28;4925326;29;20023;-69
2021/05/25 03:26:48;;;;;;;3.92;2.90;;;;;;;25.83;43.55;95341.53;4942275;29;20491;-68
2021/05/25 03:29:14;;;;;;;8.05;5.13;;;;;;;25.81;43.80;95339.28;4930478;29;20110;-71
2021/05/25 03:31:39;;;;;;;11.55;6.72;;;;;;;25.71;43.89;95328.47;4902992;29;20036;-73
2021/05/25 03:34:05;;;;;;;8.73;6.28;;;;;;;25.63;43.98;95328.28;4912257;29;20012;-71
2021/05/25 03:36:30;;;;;;;12.80;7.57;;;;;;;25.59;44.94;95338.03;4907409;29;20028;-69
2021/05/25 03:38:55;;;;;;;7.80;5.68;;;;;;;25.61;44.86;95351.97;4929771;29;20023;-72
2021/05/25 03:41:21;;;;;;;7.93;5.45;;;;;;;25.61;44.95;95346.50;4925922;29;20472;-69
2021/05/25 03:43:46;;;;;;;8.32;5.70;;;;;;;25.69;44.43;95363.81;4920247;29;20036;-70
2021/05/25 03:46:12;;;;;;;6.75;5.10;;;;;;;25.78;44.54;95371.69;4924666;29;20036;-70
2021/05/25 03:48:37;;;;;;;6.43;4.57;;;;;;;25.85;43.97;95367.09;4926868;29;20024;-70
2021/05/25 03:51:03;;;;;;;6.35;4.85;;;;;;;25.98;44.57;95364.44;4908665;29;20035;-70
2021/05/25 03:53:30;;;;;;;8.30;4.65;;;;;;;26.08;43.72;95373.75;4928342;29;20059;-70
2021/05/25 03:56:15;;;;;;;6.63;4.70;;;;;;;26.18;42.84;95361.16;4925930;29;20060;-69
2021/05/25 03:58:50;;;;;;;7.30;5.00;;;;;;;26.31;43.29;95370.22;4930963;29;20034;-69
2021/05/25 04:01:21;;;;;;;7.18;5.38;;;;;;;26.46;42.84;95362.28;4916474;29;20027;-70
2021/05/25 04:03:47;;;;;;;6.22;4.97;;;;;;;26.55;42.85;95380.34;4944868;29;20051;-73
2021/05/25 04:06:13;;;;;;;6.60;4.90;;;;;;;26.68;42.85;95369.41;4930924;29;20524;-70
2021/05/25 04:08:39;;;;;;;7.25;5.15;;;;;;;26.80;42.36;95361.22;4941416;29;20027;-72
2021/05/25 04:11:04;;;;;;;7.80;5.07;;;;;;;26.92;41.93;95350.81;4930642;29;20499;-70
2021/05/25 04:13:29;;;;;;;6.18;4.32;;;;;;;27.05;41.31;95343.38;4925635;29;20071;-72
2021/05/25 04:15:55;;;;;;;8.38;5.38;;;;;;;27.16;41.29;95343.19;4927044;29;20035;-73
2021/05/25 04:18:21;;;;;;;5.78;4.80;;;;;;;27.26;41.19;95360.69;4925496;29;20496;-69
2021/05/25 04:20:46;;;;;;;7.80;4.78;;;;;;;27.37;41.55;95363.25;4923945;29;20513;-69
2021/05/25 04:23:12;;;;;;;6.47;4.72;;;;;;;27.46;41.07;95363.56;4928386;29;20031;-69
2021/05/25 04:25:37;;;;;;;7.35;5.13;;;;;;;27.52;41.04;95353.25;4923592;29;20039;-70
2021/05/25 04:28:03;;;;;;;7.82;4.72;;;;;;;27.56;41.19;95374.88;4912257;29;20031;-72
2021/05/25 04:30:28;;;;;;;7.78;5.18;;;;;;;27.69;40.87;95372.13;4923363;29;20043;-72
2021/05/25 04:32:54;;;;;;;6.93;5.13;;;;;;;27.80;40.28;95373.38;4929446;29;20086;-76
2021/05/25 04:35:19;;;;;;;7.07;5.03;;;;;;;27.88;40.28;95392.69;4927347;29;20035;-72
2021/05/25 04:37:45;;;;;;;7.28;5.18;;;;;;;27.97;39.70;95393.00;4909055;29;20028;-70
2021/05/25 04:40:10;;;;;;;6.88;4.88;;;;;;;28.02;40.02;95389.38;4908440;29;20051;-72
2021/05/25 04:42:36;;;;;;;5.85;4.85;;;;;;;28.12;39.82;95403.47;4932127;29;20045;-71
2021/05/25 04:45:03;;;;;;;7.65;5.25;;;;;;;28.17;39.31;95384.09;4929530;29;20031;-74
2021/05/25 04:47:28;;;;;;;6.68;5.18;;;;;;;28.25;39.69;95390.41;4931288;29;20035;-71
2021/05/25 04:49:53;;;;;;;7.03;4.78;;;;;;;28.31;39.11;95399.28;4913271;29;20078;-71
2021/05/25 04:52:19;;;;;;;5.57;4.50;;;;;;;28.35;39.43;95388.69;4928588;29;20510;-71
2021/05/25 04:54:44;;;;;;;7.78;4.65;;;;;;;28.44;38.96;95385.50;4931689;29;20495;-70
2021/05/25 04:57:10;;;;;;;7.53;4.75;;;;;;;28.49;39.24;95370.88;4926739;29;20024;-71
2021/05/25 04:59:36;;;;;;;7.70;5.10;;;;;;;28.51;39.92;95395.84;4905622;29;20028;-70
2021/05/25 05:02:01;;;;;;;8.00;5.13;;;;;;;28.57;38.73;95393.72;4935034;29;20035;-74
2021/05/25 05:04:27;;;;;;;8.30;5.07;;;;;;;28.64;39.71;95415.00;4915135;29;20554;-72
2021/05/25 05:06:52;;;;;;;6.47;4.68;;;;;;;28.72;38.95;95400.84;4849242;29;20100;-71
2021/05/25 05:09:18;;;;;;;7.78;5.00;;;;;;;28.63;39.41;95386.06;4917189;29;20062;-72
2021/05/25 05:11:43;;;;;;;7.32;4.45;;;;;;;28.78;38.93;95398.69;4890382;29;20090;-74
2021/05/25 05:14:09;;;;;;;6.82;5.00;;;;;;;28.81;38.75;95403.13;4930749;29;20492;-71
2021/05/25 05:16:34;;;;;;;7.15;4.97;;;;;;;28.83;39.31;95400.59;4922865;29;20031;-72
2021/05/25 05:18:59;;;;;;;7.25;4.85;;;;;;;28.86;38.71;95402.28;4928745;29;20039;-72
2021/05/25 05:21:25;;;;;;;7.70;4.35;;;;;;;28.89;39.15;95414.97;4926107;29;20028;-72
2021/05/25 05:23:50;;;;;;;7.50;5.05;;;;;;;28.92;38.74;95419.38;4932055;29;20039;-73
2021/05/25 05:26:16;;;;;;;5.75;4.40;;;;;;;28.93;38.55;95409.84;4926801;29;20027;-73
2021/05/25 05:28:41;;;;;;;5.75;4.57;;;;;;;28.98;38.77;95417.22;4930455;29;20511;-70
2021/05/25 05:31:07;;;;;;;5.95;4.35;;;;;;;29.01;41.40;95420.91;4920776;29;20039;-71
2021/05/25 05:33:32;;;;;;;7.68;5.03;;;;;;;29.12;39.95;95421.38;4925281;29;20042;-71
2021/05/25 05:35:58;;;;;;;6.47;4.68;;;;;;;29.14;42.15;95413.31;4926186;29;20027;-71
2021/05/25 05:38:24;;;;;;;6.93;4.70;;;;;;;29.08;41.59;95415.47;4929227;29;20081;-71
2021/05/25 05:40:50;;;;;;;6.15;4.32;;;;;;;29.09;40.42;95411.47;4921035;29;20044;-71
2021/05/25 05:43:17;;;;;;;5.63;4.10;;;;;;;29.14;40.51;95413.31;4931711;29;20443;-70
2021/05/25 05:45:43;;;;;;;5.25;4.03;;;;;;;29.02;40.01;95417.63;4928094;29;20091;-73
2021/05/25 05:48:08;;;;;;;5.53;4.30;;;;;;;29.21;41.38;95423.66;4931674;29;20451;-72
2021/05/25 05:50:34;;;;;;;6.47;4.00;;;;;;;29.17;41.02;95428.75;4925966;29;20803;-72
2021/05/25 05:52:59;;;;;;;6.22;4.50;;;;;;;29.19;41.41;95415.19;4929663;29;20612;-74
2021/05/25 05:55:25;;;;;;;5.95;4.35;;;;;;;29.16;41.11;95410.75;4927843;29;20085;-71
2021/05/25 05:57:53;;;;;;;7.97;3.95;;;;;;;29.13;40.47;95389.09;4929368;29;20083;-69
2021/05/25 06:00:18;;;;;;;5.40;3.85;;;;;;;29.20;40.43;95406.41;4926902;29;20028;-71
2021/05/25 06:02:44;;;;;;;5.47;3.90;;;;;;;29.24;40.20;95417.13;4929378;29;20051;-72
2021/05/25 06:05:10;;;;;;;5.43;3.85;;;;;;;29.27;39.89;95410.53;4925035;29;20038;-72
2021/05/25 06:07:39;;;;;;;6.32;4.22;;;;;;;29.27;40.60;95405.03;4926671;29;20056;-71
2021/05/25 06:10:05;;;;;;;6.38;3.95;;;;;;;29.22;40.67;95397.59;4927154;29;20035;-70
2021/05/25 06:12:31;;;;;;;6.13;3.90;;;;;;;29.25;38.93;95407.56;4928748;29;20031;-69
2021/05/25 06:14:57;;;;;;;5.68;3.97;;;;;;;29.23;39.00;95410.09;4910099;29;20094;-71
2021/05/25 06:17:22;;;;;;;6.45;3.72;;;;;;;29.22;39.09;95403.09;4929482;29;20031;-69
2021/05/25 06:19:48;;;;;;;6.20;4.47;;;;;;;29.18;39.21;95391.72;4927337;29;20036;-71
2021/05/25 06:22:13;;;;;;;5.88;4.28;;;;;;;29.12;40.58;95410.38;4923611;29;20038;-70
2021/05/25 06:24:38;;;;;;;4.70;3.67;;;;;;;29.10;39.18;95412.91;4927228;29;20091;-69
2021/05/25 06:27:04;;;;;;;5.07;3.90;;;;;;;29.06;39.76;95396.03;4926818;29;20075;-69
2021/05/25 06:29:29;;;;;;;5.68;3.88;;;;;;;29.02;39.29;95409.38;4929574;29;20126;-71
2021/05/25 06:31:59;;;;;;;6.72;3.80;;;;;;;28.93;39.46;95415.34;4907000;29;20052;-69
2021/05/25 06:34:28;;;;;;;5.25;3.90;;;;;;;28.88;39.71;95402.47;4929204;29;20063;-71
2021/05/25 06:36:55;;;;;;;4.40;3.57;;;;;;;28.75;39.35;95402.53;4924429;29;20024;-68
2021/05/25 06:39:20;;;;;;;5.82;3.90;;;;;;;28.74;40.03;95414.06;4927979;29;20032;-69
2021/05/25 06:41:45;;;;;;;6.80;3.80;;;;;;;28.65;39.80;95391.75;4909809;29;20039;-70
2021/05/25 06:44:11;;;;;;;5.38;3.45;;;;;;;28.61;39.91;95392.09;4896150;29;20043;-70
2021/05/25 06:46:36;;;;;;;5.07;3.33;;;;;;;28.49;39.70;95392.88;4923388;29;20062;-70
2021/05/25 06:49:02;;;;;;;4.97;3.70;;;;;;;28.39;40.26;95391.88;4930220;29;20031;-69
2021/05/25 06:51:27;;;;;;;5.40;3.70;;;;;;;28.33;40.70;95386.47;4925104;29;20492;-69
2021/05/25 06:53:53;;;;;;;4.13;3.35;;;;;;;28.29;40.34;95385.34;4929832;29;20431;-70
2021/05/25 06:56:19;;;;;;;4.63;3.25;;;;;;;28.22;40.77;95386.00;4926390;29;20114;-71
2021/05/25 06:58:44;;;;;;;5.57;4.10;;;;;;;28.14;40.44;95374.19;4934060;29;20038;-72
2021/05/25 07:01:10;;;;;;;5.10;3.90;;;;;;;28.10;40.59;95376.53;4921833;29;20046;-70
2021/05/25 07:03:35;;;;;;;5.13;3.58;;;;;;;28.10;40.81;95368.28;4910978;29;20528;-70
2021/05/25 07:06:01;;;;;;;4.65;3.50;;;;;;;28.04;40.82;95370.38;4927578;29;20044;-69
2021/05/25 07:08:26;;;;;;;4.50;3.40;;;;;;;27.99;40.78;95373.25;4928499;29;20050;-70
2021/05/25 07:10:52;;;;;;;5.47;3.33;;;;;;;27.95;41.03;95373.56;4909910;29;20023;-70
2021/05/25 07:13:17;;;;;;;5.00;3.60;;;;;;;27.90;41.11;95365.44;4929828;29;20034;-70
2021/05/25 07:15:43;;;;;;;5.80;3.15;;;;;;;27.87;41.34;95367.22;4911035;29;20028;-70
2021/05/25 07:18:08;;;;;;;4.80;3.80;;;;;;;27.81;41.19;95355.63;4928410;29;20035;-71
2021/05/25 07:20:34;;;;;;;5.28;3.70;;;;;;;27.76;41.18;95351.00;4928184;29;20032;-71
2021/05/25 07:23:00;;;;;;;5.55;3.40;;;;;;;27.76;41.74;95344.78;4927476;29;20055;-69
2021/05/25 07:25:26;;;;;;;4.70;3.45;;;;;;;27.70;41.36;95346.13;4927406;29;20039;-69
2021/05/25 07:27:52;;;;;;;4.43;3.40;;;;;;;27.68;41.33;95337.69;4929299;29;20087;-70
2021/05/25 07:30:18;;;;;;;5.35;3.28;;;;;;;27.66;41.55;95340.25;4925089;29;20027;-72
2021/05/25 07:32:44;;;;;;;4.32;3.35;;;;;;;27.59;41.67;95335.38;4926974;29;20503;-71
2021/05/25 07:35:10;;;;;;;5.03;3.47;;;;;;;27.60;41.69;95353.34;4924647;29;20023;-70
2021/05/25 07:37:36;;;;;;;4.63;3.40;;;;;;;27.52;41.69;95347.00;4927192;29;20416;-70
2021/05/25 07:40:02;;;;;;;5.07;3.55;;;;;;;27.52;41.67;95357.97;4909666;29;20035;-70
2021/05/25 07:42:27;;;;;;;4.88;3.55;;;;;;;27.50;41.86;95358.53;4927078;29;20077;-71
2021/05/25 07:44:53;;;;;;;5.25;3.60;;;;;;;27.46;41.91;95360.09;4928761;29;20027;-71
2021/05/25 07:47:18;;;;;;;4.80;3.53;;;;;;;27.42;41.70;95359.66;4913080;29;20048;-70
2021/05/25 07:49:44;;;;;;;5.60;3.72;;;;;;;27.38;42.01;95353.72;4925429;29;20055;-71
2021/05/25 07:52:09;;;;;;;4.50;3.15;;;;;;;27.39;42.04;95363.44;4924742;29;20062;-71
2021/05/25 07:54:35;;;;;;;4.57;3.40;;;;;;;27.27;41.59;95348.47;4928541;29;20254;-71
2021/05/25 07:57:00;;;;;;;4.10;3.17;;;;;;;27.34;41.90;95358.81;4909067;29;20028;-71
2021/05/25 07:59:26;;;;;;;4.65;3.60;;;;;;;27.31;42.11;95348.88;4925821;29;20039;-69
2021/05/25 08:01:53;;;;;;;4.10;3.33;;;;;;;27.29;42.03;95346.69;4926380;29;20403;-69
2021/05/25 08:04:19;;;;;;;3.97;3.25;;;;;;;27.27;42.08;95346.44;4924678;29;20524;-69
2021/05/25 08:06:44;;;;;;;4.50;3.50;;;;;;;27.25;41.89;95340.03;4929782;29;20095;-72
2021/05/25 08:09:10;;;;;;;4.35;3.15;;;;;;;27.16;42.52;95332.22;4930649;29;20039;-65
2021/05/25 08:11:35;;;;;;;4.53;3.30;;;;;;;27.31;42.07;95349.63;4930455;29;20228;-69
2021/05/25 08:14:04;;;;;;;4.80;3.45;;;;;;;27.30;42.62;95348.13;4930327;29;20023;-73
2021/05/25 08:16:32;;;;;;;5.88;4.07;;;;;;;27.25;42.68;95351.00;4933387;29;20100;-72
2021/05/25 08:19:25;;;;;;;6.72;4.10;;;;;;;27.19;43.04;95341.38;4933892;29;20487;-74
2021/05/25 08:21:46;;;;;;;8.13;4.35;;;;;;;27.07;43.44;95340.84;4933585;29;20043;-69
2021/05/25 08:24:12;;;;;;;6.47;4.45;;;;;;;26.89;43.39;95325.22;4932956;29;20042;-68
2021/05/25 08:26:39;;;;;;;9.00;4.15;;;;;;;26.90;43.81;95343.13;4929117;29;20040;-68
2021/05/25 08:29:04;;;;;;;8.38;4.85;;;;;;;26.82;44.25;95341.53;4927797;29;20508;-68
2021/05/25 08:31:30;;;;;;;9.98;6.35;;;;;;;26.71;44.06;95330.00;4910993;29;20039;-68
2021/05/25 08:33:55;;;;;;;14.88;7.97;;;;;;;26.62;44.05;95333.13;4928188;29;20027;-68
2021/05/25 08:36:21;;;;;;;10.00;7.00;;;;;;;26.58;44.54;95344.41;4929127;29;20024;-70
2021/05/25 08:38:46;;;;;;;8.23;5.95;;;;;;;26.54;44.05;95343.97;4930620;29;20042;-67
2021/05/25 08:41:12;;;;;;;18.70;12.68;;;;;;;26.49;44.59;95338.59;4915692;29;20828;-67
2021/05/25 08:43:37;;;;;;;15.10;9.30;;;;;;;26.37;44.94;95335.28;4932420;29;20400;-67
2021/05/25 08:46:04;;;;;;;14.55;7.50;;;;;;;26.42;45.04;95339.19;4932673;29;20612;-69
2021/05/25 08:48:30;;;;;;;11.48;7.10;;;;;;;26.37;44.68;95334.53;4932759;29;20027;-67
2021/05/25 08:51:01;;;;;;;15.35;9.15;;;;;;;26.37;44.61;95340.03;4932813;29;20019;-67
2021/05/25 08:53:27;;;;;;;14.40;8.55;;;;;;;26.27;45.41;95352.56;4932536;29;20035;-67
2021/05/25 08:55:53;;;;;;;13.38;7.72;;;;;;;26.25;45.33;95354.34;4933126;29;20023;-69
2021/05/25 08:58:19;;;;;;;11.50;7.60;;;;;;;26.25;45.40;95330.47;4929515;29;20039;-67
2021/05/25 09:00:45;;;;;;;15.73;9.15;;;;;;;26.21;45.28;95327.28;4910943;29;20459;-68
2021/05/25 09:03:10;;;;;;;13.43;9.52;;;;;;;26.22;45.72;95334.25;4931801;29;20051;-69
2021/05/25 09:05:37;;;;;;;11.95;7.22;;;;;;;26.23;45.07;95334.97;4913351;29;20523;-68
2021/05/25 09:08:03;;;;;;;18.08;12.70;;;;;;;26.17;45.14;95326.81;4929287;29;20795;-70
2021/05/25 09:10:33;;;;;;;11.80;7.78;;;;;;;26.15;45.72;95323.88;4905579;29;20035;-69
2021/05/25 09:12:59;;;;;;;17.55;10.60;;;;;;;26.16;45.63;95317.16;4928888;29;20484;-69
2021/05/25 09:15:31;;;;;;;15.40;8.77;;;;;;;26.21;45.08;95330.00;4927454;29;20035;-72
2021/05/25 09:18:09;;;;;;;14.10;8.07;;;;;;;26.19;45.00;95310.63;4931717;29;20039;-72
2021/05/25 09:20:48;;;;;;;12.13;8.70;;;;;;;26.19;45.84;95313.38;4926052;29;20031;-73
2021/05/25 09:23:23;;;;;;;16.92;9.32;;;;;;;26.22;45.51;95317.06;4931767;29;20503;-72
2021/05/25 09:25:52;;;;;;;11.93;8.23;;;;;;;26.27;45.24;95308.78;4922447;29;20040;-72
2021/05/25 09:28:18;;;;;;;14.03;8.73;;;;;;;26.32;44.95;95310.69;4931393;29;20028;-72
2021/05/25 09:30:46;;;;;;;12.43;8.38;;;;;;;26.39;45.12;95304.63;4930689;29;20503;-71
2021/05/25 09:33:12;;;;;;;12.38;8.43;;;;;;;26.39;45.06;95299.16;4920892;29;20505;-71
2021/05/25 09:35:40;;;;;;;17.55;9.50;;;;;;;26.51;45.23;95305.94;4936371;29;20024;-72
2021/05/25 09:38:12;;;;;;;13.73;10.05;;;;;;;26.58;44.61;95299.84;4949275;29;20082;-72
2021/05/25 09:40:38;;;;;;;11.80;7.80;;;;;;;26.59;44.77;95301.31;4928694;29;20059;-71
2021/05/25 09:43:15;;;;;;;10.30;7.00;;;;;;;26.66;44.44;95306.19;4898199;29;20038;-74
2021/05/25 09:46:12;;;;;;;10.90;7.40;;;;;;;26.58;44.65;95288.88;4911394;29;20511;-72
2021/05/25 09:48:44;;;;;;;10.38;7.35;;;;;;;26.77;44.27;95301.25;4901272;29;20024;-72
2021/05/25 09:51:22;;;;;;;13.32;6.80;;;;;;;26.84;44.01;95295.88;4922709;29;20052;-74
2021/05/25 09:53:49;;;;;;;9.85;7.07;;;;;;;26.75;44.01;95286.59;4919052;29;20035;-75
2021/05/25 09:56:23;;;;;;;9.98;6.68;;;;;;;27.00;44.29;95291.41;4909646;29;20503;-72
2021/05/25 09:58:48;;;;;;;10.98;7.13;;;;;;;27.00;44.34;95297.59;4915242;29;20028;-75
2021/05/25 10:01:14;;;;;;;9.93;6.80;;;;;;;27.03;44.21;95296.56;4917233;29;20445;-73
2021/05/25 10:03:48;;;;;;;8.68;6.60;;;;;;;27.11;43.80;95296.66;4916433;29;20056;-72
2021/05/25 10:06:13;;;;;;;9.23;6.80;;;;;;;27.16;43.58;95288.34;4926557;29;20076;-73
2021/05/25 10:08:39;;;;;;;9.32;6.72;;;;;;;27.27;43.50;95282.63;4913049;29;20032;-74
2021/05/25 10:11:04;;;;;;;8.98;6.82;;;;;;;27.32;43.78;95285.28;4893112;29;20036;-72
2021/05/25 10:13:31;;;;;;;11.10;6.68;;;;;;;27.35;43.40;95272.50;4931381;29;20758;-69
2021/05/25 10:15:57;;;;;;;8.35;5.53;;;;;;;27.33;43.50;95275.03;4924761;29;20031;-69
2021/05/25 10:18:35;;;;;;;8.00;6.55;;;;;;;27.34;43.64;95268.28;4931296;29;20488;-68
2021/05/25 10:21:02;;;;;;;10.30;6.85;;;;;;;27.32;43.50;95268.06;4922471;29;20034;-71
2021/05/25 10:23:32;;;;;;;7.80;6.05;;;;;;;27.17;43.79;95256.91;4913553;29;20512;-64
2021/05/25 10:25:58;;;;;;;10.68;6.40;;;;;;;27.29;43.48;95264.41;4920189;29;20107;-64
2021/05/25 10:28:23;;;;;;;7.90;6.07;;;;;;;27.38;43.35;95254.97;4917795;29;20397;-65
2021/05/25 10:30:50;;;;;;;6.80;5.80;;;;;;;27.46;43.28;95258.56;4918030;29;20032;-64
2021/05/25 10:33:26;;;;;;;8.15;5.70;;;;;;;27.54;43.15;95240.22;4913089;29;20687;-63
2021/05/25 10:35:56;;;;;;;9.77;6.03;;;;;;;27.64;43.06;95249.47;4899534;29;20110;-66
2021/05/25 10:38:24;;;;;;;8.38;5.68;;;;;;;27.74;42.78;95238.25;4896757;29;20117;-64
2021/05/25 10:40:51;;;;;;;9.82;6.10;;;;;;;27.81;42.45;95232.09;4915441;29;20145;-65
2021/05/25 10:43:32;;;;;;;8.70;5.80;;;;;;;27.86;42.40;95227.75;4916255;29;20032;-66
2021/05/25 10:46:10;;;;;;;8.20;5.57;;;;;;;27.86;42.25;95233.25;4918484;29;20047;-66
2021/05/25 10:48:52;;;;;;;8.02;5.53;;;;;;;27.80;42.53;95233.38;4912420;29;20079;-66
2021/05/25 10:51:18;;;;;;;6.38;5.10;;;;;;;27.82;42.03;95233.59;4916943;29;20043;-66
2021/05/25 10:53:43;;;;;;;8.27;5.32;;;;;;;27.79;42.42;95228.44;4894723;29;20491;-65
2021/05/25 10:56:25;;;;;;;7.10;5.28;;;;;;;27.82;42.17;95239.06;4898525;29;20024;-65
2021/05/25 10:59:00;;;;;;;7.97;5.30;;;;;;;27.77;42.59;95231.72;4916438;29;20127;-65
2021/05/25 11:01:29;;;;;;;8.55;6.07;;;;;;;27.76;42.71;95230.22;4915036;29;20034;-65
2021/05/25 11:04:08;;;;;;;9.05;6.32;;;;;;;27.79;42.66;95214.72;4911874;29;20162;-65
2021/05/25 11:06:33;;;;;;;9.35;5.72;;;;;;;27.77;42.50;95215.25;4916211;29;20842;-66
2021/05/25 11:09:26;;;;;;;10.13;6.13;;;;;;;27.73;42.74;95209.34;4915149;29;20035;-66
2021/05/25 11:12:20;;;;;;;9.75;5.63;;;;;;;27.65;42.75;95207.03;4912398;29;20040;-65
2021/05/25 11:15:15;;;;;;;8.93;5.65;;;;;;;27.64;43.06;95205.56;4900717;29;20170;-64
2021/05/25 11:17:40;;;;;;;9.75;6.40;;;;;;;27.61;42.82;95206.63;4926288;29;20050;-64
2021/05/25 11:20:29;;;;;;;8.00;5.55;;;;;;;27.61;43.01;95201.13;4924144;29;20118;-66
2021/05/25 11:22:54;;;;;;;10.35;5.38;;;;;;;27.58;43.17;95196.72;4929763;29;20127;-65
2021/05/25 11:25:38;;;;;;;9.52;5.65;;;;;;;27.55;42.85;95192.28;4924006;29;20023;-67
2021/05/25 11:28:04;;;;;;;9.20;5.28;;;;;;;27.53;43.41;95186.59;4930109;29;20031;-67
2021/05/25 11:30:31;;;;;;;9.00;5.95;;;;;;;27.52;43.63;95182.38;4923776;29;20197;-66
2021/05/25 11:32:56;;;;;;;10.68;6.07;;;;;;;27.48;43.60;95187.44;4932736;29;20125;-67